createdAt,value
2018-02-03T00:02:01.659Z,87.40
2018-02-03T00:07:09.679Z,86.60
2018-02-03T00:09:37.768Z,86.40
2018-02-03T00:14:34.274Z,84.60
2018-02-03T00:17:01.773Z,83.80
2018-02-03T00:19:29.451Z,85.20
2018-02-03T00:21:57.109Z,85.70
2018-02-03T00:24:24.792Z,85.70
2018-02-03T00:26:52.417Z,83.60
2018-02-03T00:29:20.070Z,84.60
2018-02-03T00:31:48.069Z,85.30
2018-02-03T00:34:15.734Z,83.70
2018-02-03T00:36:43.334Z,83.60
2018-02-03T00:39:11.981Z,84.40
2018-02-03T00:41:39.643Z,82.80
2018-02-03T00:44:08.616Z,82.00
2018-02-03T00:46:36.325Z,82.50
2018-02-03T00:49:03.964Z,84.30
2018-02-03T00:51:31.594Z,83.00
2018-02-03T00:53:59.297Z,82.40
2018-02-03T00:56:26.964Z,82.20
2018-02-03T00:58:54.542Z,82.00
2018-02-03T01:01:22.240Z,82.60
2018-02-03T01:03:49.884Z,84.80
2018-02-03T01:06:17.538Z,85.60
2018-02-03T01:08:45.260Z,82.70
2018-02-03T01:11:12.883Z,83.40
2018-02-03T01:13:40.539Z,84.00
2018-02-03T01:16:09.132Z,84.20
2018-02-03T01:18:36.828Z,82.50
2018-02-03T01:21:04.457Z,82.90
2018-02-03T01:23:32.948Z,83.50
2018-02-03T01:26:00.602Z,84.80
2018-02-03T01:31:07.895Z,83.80
2018-02-03T01:33:35.778Z,82.70
2018-02-03T01:36:03.367Z,81.80
2018-02-03T01:38:31.057Z,82.30
2018-02-03T01:40:58.730Z,82.30
2018-02-03T01:45:54.056Z,80.60
2018-02-03T01:48:21.692Z,81.90
2018-02-03T01:50:49.328Z,81.90
2018-02-03T01:53:17.035Z,82.90
2018-02-03T01:55:44.697Z,82.90
2018-02-03T01:58:12.358Z,83.90
2018-02-03T02:00:40.808Z,83.60
2018-02-03T02:03:08.442Z,83.20
2018-02-03T02:05:36.080Z,84.30
2018-02-03T02:08:03.853Z,84.40
2018-02-03T02:10:31.505Z,84.20
2018-02-03T02:12:59.153Z,81.90
2018-02-03T02:15:26.851Z,83.00
2018-02-03T02:17:54.722Z,83.60
2018-02-03T02:20:22.376Z,82.40
2018-02-03T02:22:50.056Z,83.20
2018-02-03T02:25:17.749Z,84.00
2018-02-03T02:27:46.537Z,84.00
2018-02-03T02:30:14.228Z,83.90
2018-02-03T02:32:41.882Z,83.70
2018-02-03T02:35:09.505Z,83.10
2018-02-03T02:37:37.210Z,82.00
2018-02-03T02:40:04.904Z,81.60
2018-02-03T02:42:33.306Z,82.60
2018-02-03T02:45:00.989Z,82.00
2018-02-03T02:47:28.662Z,81.40
2018-02-03T02:52:35.485Z,80.70
2018-02-03T02:55:03.125Z,82.50
2018-02-03T02:57:30.763Z,82.10
2018-02-03T02:59:58.461Z,80.10
2018-02-03T03:02:26.105Z,82.00
2018-02-03T03:04:54.740Z,80.70
2018-02-03T03:09:50.057Z,81.30
2018-02-03T03:12:20.885Z,81.40
2018-02-03T03:14:48.577Z,79.70
2018-02-03T03:17:16.203Z,80.40
2018-02-03T03:19:43.856Z,80.80
2018-02-03T03:22:11.570Z,80.40
2018-02-03T03:24:39.200Z,81.10
2018-02-03T03:27:07.327Z,81.30
2018-02-03T03:29:37.400Z,81.60
2018-02-03T03:32:04.884Z,81.60
2018-02-03T03:34:32.531Z,81.90
2018-02-03T03:37:00.229Z,80.40
2018-02-03T03:39:27.904Z,82.20
2018-02-03T03:41:55.545Z,81.70
2018-02-03T03:44:23.226Z,80.90
2018-02-03T03:46:50.849Z,81.40
2018-02-03T03:49:18.510Z,82.30
2018-02-03T03:51:46.207Z,82.60
2018-02-03T03:54:13.846Z,81.50
2018-02-03T03:56:41.486Z,81.80
2018-02-03T03:59:09.197Z,82.20
2018-02-03T04:01:36.827Z,81.30
2018-02-03T04:04:04.464Z,81.20
2018-02-03T04:09:14.676Z,81.90
2018-02-03T04:11:42.317Z,81.10
2018-02-03T04:14:09.970Z,80.90
2018-02-03T04:16:38.711Z,82.10
2018-02-03T04:19:06.388Z,81.30
2018-02-03T04:21:34.022Z,82.60
2018-02-03T04:24:01.652Z,83.40
2018-02-03T04:26:29.402Z,83.70
2018-02-03T04:28:57.010Z,83.80
2018-02-03T04:31:24.676Z,82.20
2018-02-03T04:33:52.339Z,82.60
2018-02-03T04:36:19.975Z,82.90
2018-02-03T04:38:47.590Z,83.50
2018-02-03T04:41:15.336Z,83.70
2018-02-03T04:43:42.960Z,84.40
2018-02-03T04:48:38.661Z,83.30
2018-02-03T04:51:06.292Z,83.70
2018-02-03T04:53:33.927Z,83.50
2018-02-03T04:56:05.001Z,82.00
2018-02-03T04:58:32.624Z,83.50
2018-02-03T05:03:28.834Z,83.00
2018-02-03T05:05:56.473Z,81.90
2018-02-03T05:08:24.108Z,81.40
2018-02-03T05:10:51.832Z,83.00
2018-02-03T05:13:19.663Z,81.10
2018-02-03T05:15:47.795Z,80.80
2018-02-03T05:18:15.471Z,80.70
2018-02-03T05:20:43.102Z,79.70
2018-02-03T05:23:10.740Z,79.60
2018-02-03T05:28:21.568Z,79.40
2018-02-03T05:30:49.299Z,79.50
2018-02-03T05:35:48.752Z,79.90
2018-02-03T05:38:16.450Z,80.20
2018-02-03T05:40:47.539Z,79.00
2018-02-03T05:43:15.183Z,79.80
2018-02-03T05:48:11.134Z,79.90
2018-02-03T05:50:39.094Z,80.40
2018-02-03T05:58:10.789Z,78.70
2018-02-03T06:00:38.452Z,78.80
2018-02-03T06:05:33.773Z,77.70
2018-02-03T06:08:01.555Z,79.10
2018-02-03T06:10:29.203Z,79.30
2018-02-03T06:12:56.908Z,79.50
2018-02-03T06:15:25.646Z,80.30
2018-02-03T06:17:53.289Z,80.40
2018-02-03T06:20:20.970Z,79.00
2018-02-03T06:22:48.616Z,79.40
2018-02-03T06:25:16.238Z,79.70
2018-02-03T06:27:43.946Z,79.20
2018-02-03T06:30:11.624Z,78.80
2018-02-03T06:32:39.239Z,79.80
2018-02-03T06:37:35.025Z,78.50
2018-02-03T06:40:02.682Z,78.50
2018-02-03T06:42:30.378Z,78.40
2018-02-03T06:44:58.039Z,77.20
2018-02-03T06:47:25.696Z,76.00
2018-02-03T06:49:54.325Z,75.70
2018-02-03T06:55:01.166Z,77.00
2018-02-03T06:57:28.791Z,76.70
2018-02-03T06:59:56.413Z,76.10
2018-02-03T07:04:51.739Z,79.00
2018-02-03T07:07:19.380Z,79.90
2018-02-03T07:09:47.084Z,80.50
2018-02-03T07:12:14.723Z,79.50
2018-02-03T07:14:42.388Z,80.20
2018-02-03T07:17:10.061Z,81.10
2018-02-03T07:19:37.711Z,81.80
2018-02-03T07:22:05.350Z,81.40
2018-02-03T07:24:33.027Z,81.50
2018-02-03T07:27:00.667Z,80.60
2018-02-03T07:29:28.309Z,81.20
2018-02-03T07:31:56.023Z,81.10
2018-02-03T07:34:24.502Z,81.50
2018-02-03T07:36:52.132Z,81.40
2018-02-03T07:39:19.808Z,82.00
2018-02-03T07:41:47.570Z,83.00
2018-02-03T07:44:15.184Z,82.50
2018-02-03T07:46:42.890Z,83.50
2018-02-03T07:51:38.142Z,84.70
2018-02-03T07:54:05.887Z,84.50
2018-02-03T07:56:33.524Z,84.50
2018-02-03T07:59:01.161Z,85.30
2018-02-03T08:01:31.967Z,84.00
2018-02-03T08:03:59.601Z,83.90
2018-02-03T08:06:27.245Z,84.60
2018-02-03T08:08:54.935Z,85.00
2018-02-03T08:11:22.608Z,85.30
2018-02-03T08:13:50.252Z,86.50
2018-02-03T08:16:17.955Z,86.30
2018-02-03T08:21:24.728Z,83.80
2018-02-03T08:23:52.361Z,83.30
2018-02-03T08:26:20.840Z,82.60
2018-02-03T08:28:48.528Z,82.20
2018-02-03T08:31:16.144Z,81.70
2018-02-03T08:33:43.792Z,80.20
2018-02-03T08:36:11.496Z,80.80
2018-02-03T08:38:39.140Z,80.40
2018-02-03T08:41:06.784Z,81.70
2018-02-03T08:43:35.440Z,82.00
2018-02-03T08:46:03.920Z,83.30
2018-02-03T08:48:31.555Z,83.60
2018-02-03T08:50:59.276Z,84.70
2018-02-03T08:53:27.936Z,85.90
2018-02-03T08:55:55.548Z,85.90
2018-02-03T08:58:24.853Z,85.70
2018-02-03T09:00:52.485Z,83.60
2018-02-03T09:03:20.134Z,82.90
2018-02-03T09:08:16.226Z,84.80
2018-02-03T09:10:43.852Z,84.20
2018-02-03T09:13:11.556Z,84.10
2018-02-03T09:15:39.201Z,82.80
2018-02-03T09:18:06.844Z,80.00
2018-02-03T09:20:34.596Z,81.20
2018-02-03T09:23:02.192Z,80.20
2018-02-03T09:25:29.836Z,79.90
2018-02-03T09:27:57.516Z,77.20
2018-02-03T09:30:25.158Z,77.40
2018-02-03T09:32:52.778Z,76.40
2018-02-03T09:35:20.500Z,78.80
2018-02-03T09:37:48.148Z,79.40
2018-02-03T09:40:15.789Z,78.30
2018-02-03T09:42:43.510Z,75.90
2018-02-03T09:47:51.167Z,76.20
2018-02-03T09:50:18.857Z,76.90
2018-02-03T09:52:46.478Z,76.90
2018-02-03T09:55:14.163Z,74.70
2018-02-03T09:57:41.808Z,75.10
2018-02-03T10:00:09.457Z,75.00
2018-02-03T10:02:37.141Z,72.00
2018-02-03T10:05:13.081Z,75.60
2018-02-03T10:07:40.820Z,74.40
2018-02-03T10:10:08.910Z,73.20
2018-02-03T10:12:38.182Z,75.70
2018-02-03T10:17:40.215Z,75.20
2018-02-03T10:20:09.347Z,71.20
2018-02-03T10:25:07.206Z,72.90
2018-02-03T10:27:41.822Z,71.90
2018-02-03T10:41:10.184Z,75.30
2018-02-03T10:43:37.833Z,75.60
2018-02-03T10:46:05.537Z,74.80
2018-02-03T10:48:35.945Z,76.70
2018-02-03T10:51:03.318Z,75.10
2018-02-03T10:53:31.109Z,74.60
2018-02-03T10:55:58.788Z,71.00
2018-02-03T10:58:27.014Z,72.60
2018-02-03T11:00:54.628Z,71.10
2018-02-03T11:03:22.293Z,72.60
2018-02-03T11:05:49.935Z,72.70
2018-02-03T11:08:19.359Z,72.10
2018-02-03T11:10:47.021Z,72.60
2018-02-03T11:13:14.653Z,68.90
2018-02-03T11:15:42.281Z,71.60
2018-02-03T11:18:09.989Z,69.50
2018-02-03T11:20:37.639Z,71.50
2018-02-03T11:23:05.274Z,70.70
2018-02-03T11:25:36.622Z,71.10
2018-02-03T11:30:46.421Z,71.20
2018-02-03T11:33:16.940Z,71.40
2018-02-03T11:35:44.128Z,70.60
2018-02-03T11:38:13.352Z,69.90
2018-02-03T11:45:47.910Z,68.20
2018-02-03T11:48:16.105Z,67.30
2018-02-03T11:50:47.023Z,69.70
2018-02-03T11:53:14.378Z,72.20
2018-02-03T11:55:44.525Z,67.20
2018-02-03T11:58:12.105Z,67.20
2018-02-03T12:00:40.244Z,66.90
2018-02-03T12:03:08.709Z,71.10
2018-02-03T12:05:36.405Z,67.50
2018-02-03T12:10:33.795Z,69.30
2018-02-03T12:13:01.464Z,68.80
2018-02-03T12:15:29.109Z,71.50
2018-02-03T12:17:57.558Z,68.70
2018-02-03T12:20:25.304Z,69.10
2018-02-03T12:22:52.937Z,67.40
2018-02-03T12:25:21.515Z,68.90
2018-02-03T12:27:49.221Z,72.00
2018-02-03T12:30:16.849Z,69.40
2018-02-03T12:32:44.486Z,67.70
2018-02-03T12:35:12.161Z,68.40
2018-02-03T12:37:39.842Z,68.00
2018-02-03T12:40:07.772Z,69.10
2018-02-03T12:42:37.488Z,69.40
2018-02-03T12:45:05.086Z,68.60
2018-02-03T12:50:15.371Z,71.50
2018-02-03T12:55:24.083Z,72.50
2018-02-03T12:57:52.004Z,70.30
2018-02-03T13:00:20.391Z,70.60
2018-02-03T13:02:50.611Z,72.50
2018-02-03T13:05:19.497Z,69.90
2018-02-03T13:07:47.921Z,72.40
2018-02-03T13:10:17.751Z,71.40
2018-02-03T13:12:46.089Z,70.30
2018-02-03T13:15:14.392Z,73.20
2018-02-03T13:17:42.645Z,69.80
2018-02-03T13:22:57.061Z,72.00
2018-02-03T13:25:26.634Z,72.70
2018-02-03T13:27:58.104Z,69.60
2018-02-03T13:30:29.385Z,69.40
2018-02-03T13:32:58.341Z,73.70
2018-02-03T13:38:07.146Z,69.10
2018-02-03T13:40:34.762Z,68.00
2018-02-03T13:43:02.409Z,69.40
2018-02-03T13:45:30.121Z,67.30
2018-02-03T13:47:57.743Z,65.60
2018-02-03T13:50:25.372Z,67.00
2018-02-03T13:52:53.052Z,64.90
2018-02-03T13:55:21.197Z,65.50
2018-02-03T13:57:48.794Z,65.40
2018-02-03T14:00:16.571Z,65.20
2018-02-03T14:02:44.199Z,65.60
2018-02-03T14:05:11.846Z,63.40
2018-02-03T14:07:39.612Z,64.20
2018-02-03T14:10:07.244Z,66.00
2018-02-03T14:12:34.921Z,65.70
2018-02-03T14:15:02.626Z,67.50
2018-02-03T14:17:30.794Z,67.10
2018-02-03T14:19:58.414Z,65.70
2018-02-03T14:22:28.848Z,64.80
2018-02-03T14:25:02.755Z,59.60
2018-02-03T14:27:30.433Z,61.60
2018-02-03T14:29:58.117Z,62.40
2018-02-03T14:32:25.778Z,59.80
2018-02-03T14:37:21.086Z,61.50
2018-02-03T14:39:48.720Z,58.70
2018-02-03T14:42:16.431Z,60.30
2018-02-03T14:44:44.057Z,58.50
2018-02-03T14:47:11.691Z,58.90
2018-02-03T14:49:39.402Z,55.90
2018-02-03T14:54:46.988Z,57.70
2018-02-03T14:59:46.316Z,60.40
2018-02-03T15:07:16.960Z,61.90
2018-02-03T15:09:44.601Z,61.90
2018-02-03T15:12:12.248Z,62.50
2018-02-03T15:17:15.973Z,61.90
2018-02-03T15:19:44.244Z,60.30
2018-02-03T15:22:11.786Z,59.20
2018-02-03T15:24:39.426Z,60.60
2018-02-03T15:27:07.189Z,61.90
2018-02-03T15:29:34.838Z,61.20
2018-02-03T15:32:02.446Z,60.80
2018-02-03T15:34:30.161Z,62.40
2018-02-03T15:36:57.797Z,60.70
2018-02-03T15:39:25.445Z,61.80
2018-02-03T15:41:54.148Z,60.70
2018-02-03T15:46:50.233Z,61.90
2018-02-03T15:49:17.934Z,63.20
2018-02-03T15:51:48.324Z,64.40
2018-02-03T15:54:15.947Z,65.20
2018-02-03T15:56:43.647Z,65.30
2018-02-03T15:59:11.295Z,65.40
2018-02-03T16:01:38.908Z,65.80
2018-02-03T16:04:06.635Z,66.30
2018-02-03T16:06:34.271Z,66.10
2018-02-03T16:11:42.058Z,66.40
2018-02-03T16:14:09.692Z,66.10
2018-02-03T16:16:37.309Z,67.70
2018-02-03T16:19:05.018Z,67.90
2018-02-03T16:21:32.655Z,67.90
2018-02-03T16:24:00.259Z,70.40
2018-02-03T16:26:27.970Z,70.90
2018-02-03T16:28:55.588Z,70.70
2018-02-03T16:31:23.239Z,70.70
2018-02-03T16:33:50.935Z,70.60
2018-02-03T16:36:18.542Z,70.90
2018-02-03T16:38:46.163Z,71.70
2018-02-03T16:41:13.884Z,72.60
2018-02-03T16:43:41.496Z,72.00
2018-02-03T16:46:09.137Z,73.10
2018-02-03T16:48:36.873Z,74.60
2018-02-03T16:51:04.510Z,74.50
2018-02-03T16:53:32.151Z,74.60
2018-02-03T16:55:59.836Z,74.00
2018-02-03T16:58:29.479Z,74.30
2018-02-03T17:00:58.031Z,74.40
2018-02-03T17:03:25.715Z,75.90
2018-02-03T17:05:53.345Z,75.20
2018-02-03T17:08:20.990Z,75.20
2018-02-03T17:13:16.337Z,76.00
2018-02-03T17:15:44.005Z,76.00
2018-02-03T17:18:11.742Z,75.80
2018-02-03T17:20:39.370Z,76.20
2018-02-03T17:23:07.019Z,75.90
2018-02-03T17:25:34.708Z,75.80
2018-02-03T17:28:02.357Z,75.60
2018-02-03T17:30:29.999Z,75.90
2018-02-03T17:35:38.334Z,75.20
2018-02-03T17:38:11.792Z,75.40
2018-02-03T17:40:39.424Z,76.10
2018-02-03T17:43:07.921Z,77.20
2018-02-03T17:45:41.314Z,77.80
2018-02-03T17:48:09.268Z,76.20
2018-02-03T17:50:37.099Z,76.20
2018-02-03T17:53:04.776Z,76.80
2018-02-03T17:58:05.791Z,76.60
2018-02-03T18:00:33.421Z,76.90
2018-02-03T18:03:02.576Z,76.70
2018-02-03T18:05:30.304Z,76.70
2018-02-03T18:07:57.942Z,79.00
2018-02-03T18:10:25.613Z,81.10
2018-02-03T18:12:53.344Z,84.10
2018-02-03T18:15:20.994Z,86.70
2018-02-03T18:20:17.120Z,89.80
2018-02-03T18:22:44.765Z,91.30
2018-02-03T18:25:13.222Z,90.70
2018-02-03T18:27:40.891Z,90.60
2018-02-03T18:30:08.723Z,91.50
2018-02-03T18:37:43.175Z,91.00
2018-02-03T18:40:10.788Z,91.20
2018-02-03T18:42:39.328Z,90.70
2018-02-03T18:45:06.968Z,91.50
2018-02-03T18:47:34.614Z,91.60
2018-02-03T18:50:02.355Z,91.20
2018-02-03T18:52:30.902Z,92.00
2018-02-03T18:54:58.542Z,91.80
2018-02-03T18:57:27.820Z,91.80
2018-02-03T18:59:55.296Z,91.60
2018-02-03T19:02:22.948Z,93.20
2018-02-03T19:04:50.662Z,92.20
2018-02-03T19:07:18.330Z,92.00
2018-02-03T19:09:46.045Z,92.00
2018-02-03T19:12:13.753Z,92.00
2018-02-03T19:14:42.293Z,92.90
2018-02-03T19:17:09.927Z,93.20
2018-02-03T19:19:37.619Z,92.50
2018-02-03T19:22:05.273Z,91.10
2018-02-03T19:27:06.696Z,90.20
2018-02-03T19:29:34.345Z,89.70
2018-02-03T19:32:01.993Z,89.00
2018-02-03T19:34:29.725Z,88.60
2018-02-03T19:36:58.233Z,88.00
2018-02-03T19:39:25.853Z,88.30
2018-02-03T19:41:53.588Z,89.10
2018-02-03T19:44:21.257Z,89.10
2018-02-03T19:49:28.145Z,88.40
2018-02-03T19:51:55.784Z,89.40
2018-02-03T19:54:23.430Z,91.00
2018-02-03T19:56:51.125Z,90.90
2018-02-03T19:59:18.757Z,91.90
2018-02-03T20:01:46.382Z,92.10
2018-02-03T20:04:14.102Z,91.80
2018-02-03T20:06:41.746Z,91.80
2018-02-03T20:11:37.074Z,90.80
2018-02-03T20:14:04.721Z,89.90
2018-02-03T20:16:32.370Z,90.40
2018-02-03T20:19:00.125Z,91.90
2018-02-03T20:21:27.768Z,92.10
2018-02-03T20:23:55.404Z,93.20
2018-02-03T20:26:23.140Z,94.10
2018-02-03T20:28:50.807Z,94.30
2018-02-03T20:31:18.805Z,94.90
2018-02-03T20:33:47.318Z,95.30
2018-02-03T20:36:14.958Z,95.10
2018-02-03T20:38:42.602Z,94.90
2018-02-03T20:41:10.279Z,94.80
2018-02-03T20:43:39.547Z,94.60
2018-02-03T20:46:06.962Z,94.90
2018-02-03T20:51:13.968Z,94.60
2018-02-03T20:53:41.666Z,94.10
2018-02-03T20:56:09.283Z,93.00
2018-02-03T20:58:36.960Z,91.80
2018-02-03T21:01:04.627Z,91.30
2018-02-03T21:03:32.283Z,90.40
2018-02-03T21:05:59.903Z,90.60
2018-02-03T21:08:27.641Z,91.00
2018-02-03T21:10:55.275Z,89.80
2018-02-03T21:13:22.983Z,89.90
2018-02-03T21:15:50.808Z,90.20
2018-02-03T21:18:18.399Z,89.70
2018-02-03T21:20:46.117Z,89.30
2018-02-03T21:25:45.825Z,90.30
2018-02-03T21:28:14.316Z,89.80
2018-02-03T21:33:10.491Z,90.00
2018-02-03T21:35:38.178Z,89.40
2018-02-03T21:38:05.841Z,89.40
2018-02-03T21:40:33.465Z,89.50
2018-02-03T21:43:01.121Z,89.60
2018-02-03T21:45:28.826Z,89.70
2018-02-03T21:47:56.456Z,89.00
2018-02-03T21:50:24.101Z,89.10
2018-02-03T21:52:51.789Z,89.60
2018-02-03T21:55:19.449Z,89.80
2018-02-03T21:57:47.080Z,90.00
2018-02-03T22:00:14.756Z,89.70
2018-02-03T22:02:42.464Z,89.40
2018-02-03T22:05:10.020Z,89.10
2018-02-03T22:07:37.726Z,89.80
2018-02-03T22:10:05.369Z,89.60
2018-02-03T22:12:33.006Z,89.50
2018-02-03T22:17:41.804Z,88.70
2018-02-03T22:20:09.492Z,89.10
2018-02-03T22:22:37.198Z,89.50
2018-02-03T22:27:32.545Z,99.90
2018-02-03T22:30:00.180Z,96.70
2018-02-03T22:32:27.827Z,92.20
2018-02-03T22:34:55.485Z,89.80
2018-02-03T22:37:23.108Z,88.80
2018-02-03T22:39:50.749Z,89.30
2018-02-03T22:42:18.433Z,88.40
2018-02-03T22:44:46.088Z,87.90
2018-02-03T22:47:13.724Z,87.80
2018-02-03T22:49:41.437Z,87.80
2018-02-03T22:52:09.084Z,88.30
2018-02-03T22:54:36.730Z,88.50
2018-02-03T22:57:04.444Z,89.80
2018-02-03T22:59:32.074Z,89.60
2018-02-03T23:01:59.722Z,89.70
2018-02-03T23:04:27.416Z,89.90
2018-02-03T23:06:55.029Z,90.10
2018-02-03T23:09:22.672Z,91.60
2018-02-03T23:11:50.377Z,91.60
2018-02-03T23:14:18.017Z,91.00
2018-02-03T23:16:45.655Z,91.50
2018-02-03T23:19:13.368Z,91.70
2018-02-03T23:21:41.007Z,91.60
2018-02-03T23:24:08.654Z,90.90
2018-02-03T23:26:36.341Z,90.80
2018-02-03T23:29:03.969Z,90.80
2018-02-03T23:31:31.609Z,90.90
2018-02-03T23:33:59.306Z,91.30
2018-02-03T23:36:26.946Z,91.70
2018-02-03T23:38:54.581Z,92.60
2018-02-03T23:44:02.338Z,91.50
2018-02-03T23:46:30.034Z,91.30
2018-02-03T23:48:57.673Z,90.30
2018-02-03T23:51:25.657Z,90.00
2018-02-03T23:53:53.369Z,89.20
2018-02-03T23:56:21.004Z,89.10
2018-02-03T23:58:48.688Z,89.40
